sensor_id;sensor_type;location;lat;lon;timestamp;P1;durP1;ratioP1;P2;durP2;ratioP2
11018;SDS011;5563;52.296;6.806;2023-04-06T00:01:46;6.07;;;5.40;;
11018;SDS011;5563;52.296;6.806;2023-04-06T00:04:22;6.57;;;5.10;;
11018;SDS011;5563;52.296;6.806;2023-04-06T00:06:54;5.33;;;4.83;;
11018;SDS011;5563;52.296;6.806;2023-04-06T00:09:28;5.80;;;5.20;;
11018;SDS011;5563;52.296;6.806;2023-04-06T00:12:01;5.63;;;4.87;;
11018;SDS011;5563;52.296;6.806;2023-04-06T00:14:42;5.10;;;4.60;;
11018;SDS011;5563;52.296;6.806;2023-04-06T00:17:31;5.63;;;4.93;;
11018;SDS011;5563;52.296;6.806;2023-04-06T00:20:17;6.33;;;5.57;;
11018;SDS011;5563;52.296;6.806;2023-04-06T00:25:47;6.20;;;5.23;;
11018;SDS011;5563;52.296;6.806;2023-04-06T00:28:29;6.50;;;5.10;;
11018;SDS011;5563;52.296;6.806;2023-04-06T00:31:17;7.17;;;5.37;;
11018;SDS011;5563;52.296;6.806;2023-04-06T00:33:44;6.10;;;5.50;;
11018;SDS011;5563;52.296;6.806;2023-04-06T00:36:33;5.73;;;5.13;;
11018;SDS011;5563;52.296;6.806;2023-04-06T00:39:16;6.57;;;5.20;;
11018;SDS011;5563;52.296;6.806;2023-04-06T00:41:52;5.90;;;5.30;;
11018;SDS011;5563;52.296;6.806;2023-04-06T00:44:40;6.20;;;5.60;;
11018;SDS011;5563;52.296;6.806;2023-04-06T00:47:13;7.83;;;5.70;;
11018;SDS011;5563;52.296;6.806;2023-04-06T00:49:43;6.60;;;5.97;;
11018;SDS011;5563;52.296;6.806;2023-04-06T00:52:20;7.07;;;5.57;;
11018;SDS011;5563;52.296;6.806;2023-04-06T00:55:45;5.83;;;5.03;;
11018;SDS011;5563;52.296;6.806;2023-04-06T00:58:20;6.13;;;5.50;;
11018;SDS011;5563;52.296;6.806;2023-04-06T01:00:53;9.70;;;5.83;;
11018;SDS011;5563;52.296;6.806;2023-04-06T01:03:27;6.93;;;5.83;;
11018;SDS011;5563;52.296;6.806;2023-04-06T01:06:00;7.90;;;5.70;;
11018;SDS011;5563;52.296;6.806;2023-04-06T01:08:46;6.83;;;5.47;;
11018;SDS011;5563;52.296;6.806;2023-04-06T01:11:13;6.40;;;5.77;;
11018;SDS011;5563;52.296;6.806;2023-04-06T01:13:45;6.43;;;5.80;;
11018;SDS011;5563;52.296;6.806;2023-04-06T01:16:19;7.90;;;5.93;;
11018;SDS011;5563;52.296;6.806;2023-04-06T01:18:52;6.40;;;5.77;;
11018;SDS011;5563;52.296;6.806;2023-04-06T01:21:35;6.20;;;5.43;;
11018;SDS011;5563;52.296;6.806;2023-04-06T01:24:44;6.00;;;5.27;;
11018;SDS011;5563;52.296;6.806;2023-04-06T01:27:12;7.07;;;5.70;;
11018;SDS011;5563;52.296;6.806;2023-04-06T01:29:45;6.47;;;5.87;;
11018;SDS011;5563;52.296;6.806;2023-04-06T01:32:21;6.80;;;5.70;;
11018;SDS011;5563;52.296;6.806;2023-04-06T01:34:54;7.57;;;5.80;;
11018;SDS011;5563;52.296;6.806;2023-04-06T01:37:32;7.63;;;6.03;;
11018;SDS011;5563;52.296;6.806;2023-04-06T01:43:11;6.57;;;5.87;;
11018;SDS011;5563;52.296;6.806;2023-04-06T01:45:44;7.40;;;6.20;;
11018;SDS011;5563;52.296;6.806;2023-04-06T01:48:12;6.40;;;5.67;;
11018;SDS011;5563;52.296;6.806;2023-04-06T01:50:45;7.77;;;5.97;;
11018;SDS011;5563;52.296;6.806;2023-04-06T01:53:14;7.53;;;6.00;;
11018;SDS011;5563;52.296;6.806;2023-04-06T01:55:47;7.67;;;6.27;;
11018;SDS011;5563;52.296;6.806;2023-04-06T01:58:28;7.57;;;6.00;;
11018;SDS011;5563;52.296;6.806;2023-04-06T02:01:05;7.93;;;6.50;;
11018;SDS011;5563;52.296;6.806;2023-04-06T02:03:47;6.23;;;5.63;;
11018;SDS011;5563;52.296;6.806;2023-04-06T02:06:23;6.80;;;6.10;;
11018;SDS011;5563;52.296;6.806;2023-04-06T02:09:01;8.53;;;6.97;;
11018;SDS011;5563;52.296;6.806;2023-04-06T02:11:40;9.57;;;6.93;;
11018;SDS011;5563;52.296;6.806;2023-04-06T02:14:21;7.20;;;5.97;;
11018;SDS011;5563;52.296;6.806;2023-04-06T02:17:03;8.07;;;6.33;;
11018;SDS011;5563;52.296;6.806;2023-04-06T02:19:30;8.17;;;6.53;;
11018;SDS011;5563;52.296;6.806;2023-04-06T02:22:12;8.97;;;6.77;;
11018;SDS011;5563;52.296;6.806;2023-04-06T02:24:51;7.13;;;6.03;;
11018;SDS011;5563;52.296;6.806;2023-04-06T02:27:23;7.50;;;6.13;;
11018;SDS011;5563;52.296;6.806;2023-04-06T02:30:06;8.73;;;6.83;;
11018;SDS011;5563;52.296;6.806;2023-04-06T02:32:52;7.30;;;6.40;;
11018;SDS011;5563;52.296;6.806;2023-04-06T02:35:28;7.17;;;6.23;;
11018;SDS011;5563;52.296;6.806;2023-04-06T02:38:05;7.73;;;6.47;;
11018;SDS011;5563;52.296;6.806;2023-04-06T02:40:37;6.70;;;6.00;;
11018;SDS011;5563;52.296;6.806;2023-04-06T02:43:04;7.07;;;6.20;;
11018;SDS011;5563;52.296;6.806;2023-04-06T02:45:37;10.30;;;7.20;;
11018;SDS011;5563;52.296;6.806;2023-04-06T02:48:04;7.73;;;6.37;;
11018;SDS011;5563;52.296;6.806;2023-04-06T02:50:38;8.60;;;6.67;;
11018;SDS011;5563;52.296;6.806;2023-04-06T02:53:04;7.93;;;6.40;;
11018;SDS011;5563;52.296;6.806;2023-04-06T02:55:41;8.27;;;6.90;;
11018;SDS011;5563;52.296;6.806;2023-04-06T02:58:07;8.33;;;6.30;;
11018;SDS011;5563;52.296;6.806;2023-04-06T03:00:40;8.23;;;6.07;;
11018;SDS011;5563;52.296;6.806;2023-04-06T03:03:16;8.23;;;7.07;;
11018;SDS011;5563;52.296;6.806;2023-04-06T03:05:43;9.07;;;7.13;;
11018;SDS011;5563;52.296;6.806;2023-04-06T03:08:19;7.13;;;6.07;;
11018;SDS011;5563;52.296;6.806;2023-04-06T03:10:56;7.77;;;6.63;;
11018;SDS011;5563;52.296;6.806;2023-04-06T03:13:32;7.67;;;6.83;;
11018;SDS011;5563;52.296;6.806;2023-04-06T03:16:06;8.50;;;6.70;;
11018;SDS011;5563;52.296;6.806;2023-04-06T03:18:39;7.40;;;6.67;;
11018;SDS011;5563;52.296;6.806;2023-04-06T03:21:06;8.80;;;6.97;;
11018;SDS011;5563;52.296;6.806;2023-04-06T03:23:39;8.60;;;6.87;;
11018;SDS011;5563;52.296;6.806;2023-04-06T03:26:08;7.17;;;6.20;;
11018;SDS011;5563;52.296;6.806;2023-04-06T03:28:41;9.17;;;7.30;;
11018;SDS011;5563;52.296;6.806;2023-04-06T03:31:08;7.60;;;6.13;;
11018;SDS011;5563;52.296;6.806;2023-04-06T03:33:48;7.60;;;6.80;;
11018;SDS011;5563;52.296;6.806;2023-04-06T03:36:15;7.13;;;6.20;;
11018;SDS011;5563;52.296;6.806;2023-04-06T03:39:01;8.10;;;6.93;;
11018;SDS011;5563;52.296;6.806;2023-04-06T03:41:28;8.10;;;6.53;;
11018;SDS011;5563;52.296;6.806;2023-04-06T03:44:02;7.80;;;6.53;;
11018;SDS011;5563;52.296;6.806;2023-04-06T03:46:35;7.63;;;6.53;;
11018;SDS011;5563;52.296;6.806;2023-04-06T03:49:08;8.10;;;6.87;;
11018;SDS011;5563;52.296;6.806;2023-04-06T03:51:40;7.77;;;6.90;;
11018;SDS011;5563;52.296;6.806;2023-04-06T03:54:07;8.73;;;6.67;;
11018;SDS011;5563;52.296;6.806;2023-04-06T03:56:34;9.57;;;7.60;;
11018;SDS011;5563;52.296;6.806;2023-04-06T03:59:09;8.73;;;6.90;;
11018;SDS011;5563;52.296;6.806;2023-04-06T04:01:43;8.43;;;7.33;;
11018;SDS011;5563;52.296;6.806;2023-04-06T04:04:21;9.30;;;7.03;;
11018;SDS011;5563;52.296;6.806;2023-04-06T04:06:54;8.30;;;6.47;;
11018;SDS011;5563;52.296;6.806;2023-04-06T04:09:21;8.77;;;7.00;;
11018;SDS011;5563;52.296;6.806;2023-04-06T04:11:55;10.37;;;7.50;;
11018;SDS011;5563;52.296;6.806;2023-04-06T04:14:21;9.00;;;7.37;;
11018;SDS011;5563;52.296;6.806;2023-04-06T04:17:01;9.60;;;7.33;;
11018;SDS011;5563;52.296;6.806;2023-04-06T04:19:29;9.37;;;6.90;;
11018;SDS011;5563;52.296;6.806;2023-04-06T04:22:03;8.27;;;6.90;;
11018;SDS011;5563;52.296;6.806;2023-04-06T04:24:31;7.87;;;6.87;;
11018;SDS011;5563;52.296;6.806;2023-04-06T04:32:51;7.77;;;6.83;;
11018;SDS011;5563;52.296;6.806;2023-04-06T04:35:17;8.30;;;7.37;;
11018;SDS011;5563;52.296;6.806;2023-04-06T04:37:51;8.43;;;6.83;;
11018;SDS011;5563;52.296;6.806;2023-04-06T04:40:18;8.77;;;6.60;;
11018;SDS011;5563;52.296;6.806;2023-04-06T04:42:44;7.73;;;6.73;;
11018;SDS011;5563;52.296;6.806;2023-04-06T04:45:18;7.73;;;6.67;;
11018;SDS011;5563;52.296;6.806;2023-04-06T04:47:44;9.60;;;6.83;;
11018;SDS011;5563;52.296;6.806;2023-04-06T04:50:18;9.60;;;7.50;;
11018;SDS011;5563;52.296;6.806;2023-04-06T04:52:52;9.23;;;7.13;;
11018;SDS011;5563;52.296;6.806;2023-04-06T04:55:26;10.37;;;7.63;;
11018;SDS011;5563;52.296;6.806;2023-04-06T04:58:04;8.80;;;7.63;;
11018;SDS011;5563;52.296;6.806;2023-04-06T05:00:38;11.63;;;7.80;;
11018;SDS011;5563;52.296;6.806;2023-04-06T05:03:04;10.07;;;7.23;;
11018;SDS011;5563;52.296;6.806;2023-04-06T05:05:39;11.13;;;7.23;;
11018;SDS011;5563;52.296;6.806;2023-04-06T05:08:06;10.23;;;8.07;;
11018;SDS011;5563;52.296;6.806;2023-04-06T05:10:39;10.87;;;7.37;;
11018;SDS011;5563;52.296;6.806;2023-04-06T05:13:13;8.47;;;7.40;;
11018;SDS011;5563;52.296;6.806;2023-04-06T05:15:47;9.00;;;7.87;;
11018;SDS011;5563;52.296;6.806;2023-04-06T05:18:33;9.33;;;7.67;;
11018;SDS011;5563;52.296;6.806;2023-04-06T05:21:11;8.30;;;7.30;;
11018;SDS011;5563;52.296;6.806;2023-04-06T05:23:46;8.80;;;7.50;;
11018;SDS011;5563;52.296;6.806;2023-04-06T05:26:24;9.87;;;8.20;;
11018;SDS011;5563;52.296;6.806;2023-04-06T05:28:58;10.43;;;8.60;;
11018;SDS011;5563;52.296;6.806;2023-04-06T05:31:31;9.73;;;7.90;;
11018;SDS011;5563;52.296;6.806;2023-04-06T05:34:06;9.03;;;7.50;;
11018;SDS011;5563;52.296;6.806;2023-04-06T05:36:35;10.83;;;8.17;;
11018;SDS011;5563;52.296;6.806;2023-04-06T05:39:24;9.90;;;8.23;;
11018;SDS011;5563;52.296;6.806;2023-04-06T05:41:58;8.53;;;7.63;;
11018;SDS011;5563;52.296;6.806;2023-04-06T05:44:31;10.03;;;7.87;;
11018;SDS011;5563;52.296;6.806;2023-04-06T05:47:04;11.60;;;8.47;;
11018;SDS011;5563;52.296;6.806;2023-04-06T05:49:38;10.60;;;8.37;;
11018;SDS011;5563;52.296;6.806;2023-04-06T05:52:05;9.40;;;8.03;;
11018;SDS011;5563;52.296;6.806;2023-04-06T05:54:39;9.57;;;7.47;;
11018;SDS011;5563;52.296;6.806;2023-04-06T05:57:12;10.10;;;8.50;;
11018;SDS011;5563;52.296;6.806;2023-04-06T05:59:45;13.20;;;8.73;;
11018;SDS011;5563;52.296;6.806;2023-04-06T06:02:11;11.50;;;8.80;;
11018;SDS011;5563;52.296;6.806;2023-04-06T06:04:45;9.03;;;7.80;;
11018;SDS011;5563;52.296;6.806;2023-04-06T06:07:12;12.27;;;8.67;;
11018;SDS011;5563;52.296;6.806;2023-04-06T06:09:47;12.17;;;9.10;;
11018;SDS011;5563;52.296;6.806;2023-04-06T06:12:13;10.73;;;8.77;;
11018;SDS011;5563;52.296;6.806;2023-04-06T06:14:47;11.87;;;8.40;;
11018;SDS011;5563;52.296;6.806;2023-04-06T06:17:20;12.07;;;8.33;;
11018;SDS011;5563;52.296;6.806;2023-04-06T06:19:53;11.17;;;8.93;;
11018;SDS011;5563;52.296;6.806;2023-04-06T06:22:27;10.30;;;9.20;;
11018;SDS011;5563;52.296;6.806;2023-04-06T06:25:00;11.70;;;8.83;;
11018;SDS011;5563;52.296;6.806;2023-04-06T06:27:26;12.03;;;9.40;;
11018;SDS011;5563;52.296;6.806;2023-04-06T06:30:00;13.27;;;9.27;;
11018;SDS011;5563;52.296;6.806;2023-04-06T06:32:34;10.53;;;9.00;;
11018;SDS011;5563;52.296;6.806;2023-04-06T06:35:00;11.70;;;9.13;;
11018;SDS011;5563;52.296;6.806;2023-04-06T06:37:34;10.73;;;8.70;;
11018;SDS011;5563;52.296;6.806;2023-04-06T06:40:01;10.20;;;8.97;;
11018;SDS011;5563;52.296;6.806;2023-04-06T06:42:34;12.90;;;9.50;;
11018;SDS011;5563;52.296;6.806;2023-04-06T06:45:01;10.43;;;8.87;;
11018;SDS011;5563;52.296;6.806;2023-04-06T06:47:35;11.37;;;9.67;;
11018;SDS011;5563;52.296;6.806;2023-04-06T06:50:02;15.00;;;9.80;;
11018;SDS011;5563;52.296;6.806;2023-04-06T06:52:29;12.60;;;9.17;;
11018;SDS011;5563;52.296;6.806;2023-04-06T06:55:03;11.97;;;9.60;;
11018;SDS011;5563;52.296;6.806;2023-04-06T06:57:37;11.23;;;9.23;;
11018;SDS011;5563;52.296;6.806;2023-04-06T07:00:05;11.93;;;9.53;;
11018;SDS011;5563;52.296;6.806;2023-04-06T07:02:40;14.30;;;10.27;;
11018;SDS011;5563;52.296;6.806;2023-04-06T07:05:14;12.30;;;10.13;;
11018;SDS011;5563;52.296;6.806;2023-04-06T07:07:49;11.83;;;9.50;;
11018;SDS011;5563;52.296;6.806;2023-04-06T07:10:24;15.23;;;10.63;;
11018;SDS011;5563;52.296;6.806;2023-04-06T07:12:51;15.57;;;10.50;;
11018;SDS011;5563;52.296;6.806;2023-04-06T07:15:31;12.50;;;10.50;;
11018;SDS011;5563;52.296;6.806;2023-04-06T07:18:12;15.73;;;10.70;;
11018;SDS011;5563;52.296;6.806;2023-04-06T07:20:45;14.80;;;10.93;;
11018;SDS011;5563;52.296;6.806;2023-04-06T07:23:12;14.93;;;11.17;;
11018;SDS011;5563;52.296;6.806;2023-04-06T07:25:46;14.43;;;11.00;;
11018;SDS011;5563;52.296;6.806;2023-04-06T07:28:20;15.40;;;11.57;;
11018;SDS011;5563;52.296;6.806;2023-04-06T07:30:54;15.50;;;11.03;;
11018;SDS011;5563;52.296;6.806;2023-04-06T07:33:21;13.50;;;10.70;;
11018;SDS011;5563;52.296;6.806;2023-04-06T07:35:54;15.30;;;11.50;;
11018;SDS011;5563;52.296;6.806;2023-04-06T07:38:21;14.90;;;11.23;;
11018;SDS011;5563;52.296;6.806;2023-04-06T07:40:48;17.90;;;11.33;;
11018;SDS011;5563;52.296;6.806;2023-04-06T07:43:21;15.43;;;11.40;;
11018;SDS011;5563;52.296;6.806;2023-04-06T07:45:48;14.17;;;11.00;;
11018;SDS011;5563;52.296;6.806;2023-04-06T07:48:21;14.30;;;10.13;;
11018;SDS011;5563;52.296;6.806;2023-04-06T07:50:48;14.17;;;11.40;;
11018;SDS011;5563;52.296;6.806;2023-04-06T07:53:22;15.23;;;11.50;;
11018;SDS011;5563;52.296;6.806;2023-04-06T07:55:50;13.37;;;10.17;;
11018;SDS011;5563;52.296;6.806;2023-04-06T07:58:24;14.23;;;11.37;;
11018;SDS011;5563;52.296;6.806;2023-04-06T08:00:51;16.43;;;11.00;;
11018;SDS011;5563;52.296;6.806;2023-04-06T08:03:25;14.50;;;10.47;;
11018;SDS011;5563;52.296;6.806;2023-04-06T08:05:59;15.13;;;11.20;;
11018;SDS011;5563;52.296;6.806;2023-04-06T08:08:33;16.97;;;11.60;;
11018;SDS011;5563;52.296;6.806;2023-04-06T08:11:07;12.70;;;10.60;;
11018;SDS011;5563;52.296;6.806;2023-04-06T08:13:35;13.47;;;10.80;;
11018;SDS011;5563;52.296;6.806;2023-04-06T08:16:14;15.47;;;10.97;;
11018;SDS011;5563;52.296;6.806;2023-04-06T08:18:41;15.82;;;11.55;;
11018;SDS011;5563;52.296;6.806;2023-04-06T08:21:15;15.80;;;11.57;;
11018;SDS011;5563;52.296;6.806;2023-04-06T08:23:42;16.30;;;11.30;;
11018;SDS011;5563;52.296;6.806;2023-04-06T08:26:16;13.60;;;10.48;;
11018;SDS011;5563;52.296;6.806;2023-04-06T08:28:43;14.45;;;11.23;;
11018;SDS011;5563;52.296;6.806;2023-04-06T08:31:17;19.38;;;11.80;;
11018;SDS011;5563;52.296;6.806;2023-04-06T08:33:44;15.90;;;11.40;;
11018;SDS011;5563;52.296;6.806;2023-04-06T08:36:17;16.05;;;11.25;;
11018;SDS011;5563;52.296;6.806;2023-04-06T08:38:49;15.77;;;11.10;;
11018;SDS011;5563;52.296;6.806;2023-04-06T08:41:17;16.83;;;11.20;;
11018;SDS011;5563;52.296;6.806;2023-04-06T08:43:54;14.85;;;11.52;;
11018;SDS011;5563;52.296;6.806;2023-04-06T08:46:31;16.38;;;11.55;;
11018;SDS011;5563;52.296;6.806;2023-04-06T08:48:59;15.15;;;12.25;;
11018;SDS011;5563;52.296;6.806;2023-04-06T08:51:34;16.17;;;12.40;;
11018;SDS011;5563;52.296;6.806;2023-04-06T08:54:01;13.88;;;10.93;;
11018;SDS011;5563;52.296;6.806;2023-04-06T08:56:37;15.65;;;11.90;;
11018;SDS011;5563;52.296;6.806;2023-04-06T08:59:05;16.15;;;12.38;;
11018;SDS011;5563;52.296;6.806;2023-04-06T09:01:46;15.57;;;11.82;;
11018;SDS011;5563;52.296;6.806;2023-04-06T09:04:20;13.98;;;11.80;;
11018;SDS011;5563;52.296;6.806;2023-04-06T09:06:47;14.73;;;12.02;;
11018;SDS011;5563;52.296;6.806;2023-04-06T09:09:21;15.52;;;12.85;;
11018;SDS011;5563;52.296;6.806;2023-04-06T09:11:50;18.63;;;12.20;;
11018;SDS011;5563;52.296;6.806;2023-04-06T09:14:37;14.10;;;12.45;;
11018;SDS011;5563;52.296;6.806;2023-04-06T09:17:25;14.35;;;12.32;;
11018;SDS011;5563;52.296;6.806;2023-04-06T09:20:09;15.68;;;12.05;;
11018;SDS011;5563;52.296;6.806;2023-04-06T09:22:38;15.00;;;12.45;;
11018;SDS011;5563;52.296;6.806;2023-04-06T09:25:18;17.83;;;12.43;;
11018;SDS011;5563;52.296;6.806;2023-04-06T09:27:47;14.80;;;11.60;;
11018;SDS011;5563;52.296;6.806;2023-04-06T09:30:22;13.60;;;11.82;;
11018;SDS011;5563;52.296;6.806;2023-04-06T09:32:58;17.00;;;12.27;;
11018;SDS011;5563;52.296;6.806;2023-04-06T09:35:32;15.85;;;12.30;;
11018;SDS011;5563;52.296;6.806;2023-04-06T09:38:09;16.65;;;12.82;;
11018;SDS011;5563;52.296;6.806;2023-04-06T09:40:47;14.38;;;12.30;;
11018;SDS011;5563;52.296;6.806;2023-04-06T09:43:26;16.00;;;12.93;;
11018;SDS011;5563;52.296;6.806;2023-04-06T09:46:00;18.63;;;12.70;;
11018;SDS011;5563;52.296;6.806;2023-04-06T09:48:36;16.13;;;12.50;;
11018;SDS011;5563;52.296;6.806;2023-04-06T09:51:11;18.80;;;12.52;;
11018;SDS011;5563;52.296;6.806;2023-04-06T09:53:42;16.70;;;12.35;;
11018;SDS011;5563;52.296;6.806;2023-04-06T09:56:23;15.90;;;11.82;;
11018;SDS011;5563;52.296;6.806;2023-04-06T09:59:02;16.00;;;13.45;;
11018;SDS011;5563;52.296;6.806;2023-04-06T10:01:34;14.25;;;12.57;;
11018;SDS011;5563;52.296;6.806;2023-04-06T10:04:17;13.02;;;10.48;;
11018;SDS011;5563;52.296;6.806;2023-04-06T10:07:00;15.70;;;12.85;;
11018;SDS011;5563;52.296;6.806;2023-04-06T10:09:28;13.65;;;11.68;;
11018;SDS011;5563;52.296;6.806;2023-04-06T10:12:09;17.13;;;13.00;;
11018;SDS011;5563;52.296;6.806;2023-04-06T10:14:36;15.25;;;13.00;;
11018;SDS011;5563;52.296;6.806;2023-04-06T10:17:14;16.33;;;13.27;;
11018;SDS011;5563;52.296;6.806;2023-04-06T10:20:04;17.63;;;13.85;;
11018;SDS011;5563;52.296;6.806;2023-04-06T10:25:30;20.95;;;15.27;;
11018;SDS011;5563;52.296;6.806;2023-04-06T10:28:04;19.80;;;14.32;;
11018;SDS011;5563;52.296;6.806;2023-04-06T10:30:42;17.83;;;15.50;;
11018;SDS011;5563;52.296;6.806;2023-04-06T10:33:17;18.08;;;15.02;;
11018;SDS011;5563;52.296;6.806;2023-04-06T10:35:54;18.27;;;15.50;;
11018;SDS011;5563;52.296;6.806;2023-04-06T10:38:34;19.92;;;15.73;;
11018;SDS011;5563;52.296;6.806;2023-04-06T10:41:09;18.25;;;14.85;;
11018;SDS011;5563;52.296;6.806;2023-04-06T10:43:37;18.63;;;15.57;;
11018;SDS011;5563;52.296;6.806;2023-04-06T10:46:13;17.02;;;13.80;;
11018;SDS011;5563;52.296;6.806;2023-04-06T10:49:08;18.08;;;14.43;;
11018;SDS011;5563;52.296;6.806;2023-04-06T10:51:44;15.60;;;11.98;;
11018;SDS011;5563;52.296;6.806;2023-04-06T10:54:11;17.15;;;11.48;;
11018;SDS011;5563;52.296;6.806;2023-04-06T10:56:46;17.52;;;14.07;;
11018;SDS011;5563;52.296;6.806;2023-04-06T10:59:13;16.80;;;14.00;;
11018;SDS011;5563;52.296;6.806;2023-04-06T11:01:51;16.73;;;14.30;;
11018;SDS011;5563;52.296;6.806;2023-04-06T11:04:26;17.08;;;14.43;;
11018;SDS011;5563;52.296;6.806;2023-04-06T11:06:53;17.10;;;13.85;;
11018;SDS011;5563;52.296;6.806;2023-04-06T11:09:33;17.50;;;14.40;;
11018;SDS011;5563;52.296;6.806;2023-04-06T11:12:01;17.38;;;14.88;;
11018;SDS011;5563;52.296;6.806;2023-04-06T11:14:35;17.45;;;14.50;;
11018;SDS011;5563;52.296;6.806;2023-04-06T11:17:02;17.98;;;14.48;;
11018;SDS011;5563;52.296;6.806;2023-04-06T11:19:36;18.20;;;14.55;;
11018;SDS011;5563;52.296;6.806;2023-04-06T11:22:07;18.80;;;15.00;;
11018;SDS011;5563;52.296;6.806;2023-04-06T11:24:41;19.73;;;15.27;;
11018;SDS011;5563;52.296;6.806;2023-04-06T11:27:14;17.70;;;15.02;;
11018;SDS011;5563;52.296;6.806;2023-04-06T11:29:51;18.10;;;13.20;;
11018;SDS011;5563;52.296;6.806;2023-04-06T11:32:21;16.85;;;14.52;;
11018;SDS011;5563;52.296;6.806;2023-04-06T11:34:57;17.60;;;15.02;;
11018;SDS011;5563;52.296;6.806;2023-04-06T11:37:26;19.42;;;14.93;;
11018;SDS011;5563;52.296;6.806;2023-04-06T11:40:00;18.27;;;13.63;;
11018;SDS011;5563;52.296;6.806;2023-04-06T11:42:28;24.30;;;13.95;;
11018;SDS011;5563;52.296;6.806;2023-04-06T11:45:02;17.42;;;14.13;;
11018;SDS011;5563;52.296;6.806;2023-04-06T11:47:31;16.38;;;14.25;;
11018;SDS011;5563;52.296;6.806;2023-04-06T11:50:11;20.80;;;15.27;;
11018;SDS011;5563;52.296;6.806;2023-04-06T11:52:58;16.92;;;14.35;;
11018;SDS011;5563;52.296;6.806;2023-04-06T11:55:37;17.85;;;13.77;;
11018;SDS011;5563;52.296;6.806;2023-04-06T11:58:05;20.02;;;14.20;;
11018;SDS011;5563;52.296;6.806;2023-04-06T12:00:40;18.08;;;13.75;;
11018;SDS011;5563;52.296;6.806;2023-04-06T12:03:12;17.75;;;13.40;;
11018;SDS011;5563;52.296;6.806;2023-04-06T12:05:46;17.77;;;14.05;;
11018;SDS011;5563;52.296;6.806;2023-04-06T12:08:13;16.75;;;14.63;;
11018;SDS011;5563;52.296;6.806;2023-04-06T12:10:42;19.85;;;15.18;;
11018;SDS011;5563;52.296;6.806;2023-04-06T12:13:16;18.48;;;14.32;;
11018;SDS011;5563;52.296;6.806;2023-04-06T12:15:51;16.63;;;13.82;;
11018;SDS011;5563;52.296;6.806;2023-04-06T12:18:24;19.40;;;15.15;;
11018;SDS011;5563;52.296;6.806;2023-04-06T12:20:51;18.75;;;13.95;;
11018;SDS011;5563;52.296;6.806;2023-04-06T12:23:25;18.02;;;13.57;;
11018;SDS011;5563;52.296;6.806;2023-04-06T12:25:51;17.33;;;13.95;;
11018;SDS011;5563;52.296;6.806;2023-04-06T12:28:25;18.80;;;13.63;;
11018;SDS011;5563;52.296;6.806;2023-04-06T12:30:53;21.70;;;14.45;;
11018;SDS011;5563;52.296;6.806;2023-04-06T12:33:27;19.13;;;14.80;;
11018;SDS011;5563;52.296;6.806;2023-04-06T12:35:54;17.80;;;13.98;;
11018;SDS011;5563;52.296;6.806;2023-04-06T12:38:28;19.42;;;14.07;;
11018;SDS011;5563;52.296;6.806;2023-04-06T12:40:55;18.58;;;14.65;;
11018;SDS011;5563;52.296;6.806;2023-04-06T12:43:28;19.65;;;14.23;;
11018;SDS011;5563;52.296;6.806;2023-04-06T12:45:55;18.42;;;13.93;;
11018;SDS011;5563;52.296;6.806;2023-04-06T12:48:22;18.55;;;13.77;;
11018;SDS011;5563;52.296;6.806;2023-04-06T12:51:06;17.85;;;14.55;;
11018;SDS011;5563;52.296;6.806;2023-04-06T12:53:34;19.38;;;15.07;;
11018;SDS011;5563;52.296;6.806;2023-04-06T12:56:12;19.80;;;15.82;;
11018;SDS011;5563;52.296;6.806;2023-04-06T12:58:44;16.65;;;14.43;;
11018;SDS011;5563;52.296;6.806;2023-04-06T13:01:18;18.33;;;14.90;;
11018;SDS011;5563;52.296;6.806;2023-04-06T13:03:46;18.85;;;15.20;;
11018;SDS011;5563;52.296;6.806;2023-04-06T13:06:20;18.83;;;13.88;;
11018;SDS011;5563;52.296;6.806;2023-04-06T13:08:47;21.67;;;15.88;;
11018;SDS011;5563;52.296;6.806;2023-04-06T13:11:23;20.98;;;16.02;;
11018;SDS011;5563;52.296;6.806;2023-04-06T13:13:53;20.05;;;15.38;;
11018;SDS011;5563;52.296;6.806;2023-04-06T13:16:33;20.38;;;15.07;;
11018;SDS011;5563;52.296;6.806;2023-04-06T13:19:01;17.45;;;14.18;;
11018;SDS011;5563;52.296;6.806;2023-04-06T13:21:38;17.38;;;13.88;;
11018;SDS011;5563;52.296;6.806;2023-04-06T13:24:06;19.02;;;14.57;;
11018;SDS011;5563;52.296;6.806;2023-04-06T13:26:41;17.70;;;13.77;;
11018;SDS011;5563;52.296;6.806;2023-04-06T13:29:15;17.10;;;13.55;;
11018;SDS011;5563;52.296;6.806;2023-04-06T13:31:49;14.63;;;12.05;;
11018;SDS011;5563;52.296;6.806;2023-04-06T13:34:16;12.57;;;10.30;;
11018;SDS011;5563;52.296;6.806;2023-04-06T13:36:50;13.13;;;9.65;;
11018;SDS011;5563;52.296;6.806;2023-04-06T13:39:17;12.80;;;8.27;;
11018;SDS011;5563;52.296;6.806;2023-04-06T13:41:52;8.52;;;7.63;;
11018;SDS011;5563;52.296;6.806;2023-04-06T13:44:29;12.57;;;9.23;;
11018;SDS011;5563;52.296;6.806;2023-04-06T13:46:56;13.65;;;9.95;;
11018;SDS011;5563;52.296;6.806;2023-04-06T13:49:30;11.88;;;8.98;;
11018;SDS011;5563;52.296;6.806;2023-04-06T13:51:57;11.88;;;9.30;;
11018;SDS011;5563;52.296;6.806;2023-04-06T13:54:31;12.80;;;10.48;;
11018;SDS011;5563;52.296;6.806;2023-04-06T13:56:58;12.57;;;9.70;;
11018;SDS011;5563;52.296;6.806;2023-04-06T13:59:24;12.68;;;9.85;;
11018;SDS011;5563;52.296;6.806;2023-04-06T14:02:04;13.25;;;10.60;;
11018;SDS011;5563;52.296;6.806;2023-04-06T14:04:39;12.57;;;9.35;;
11018;SDS011;5563;52.296;6.806;2023-04-06T14:07:06;14.23;;;10.52;;
11018;SDS011;5563;52.296;6.806;2023-04-06T14:09:49;12.38;;;10.18;;
11018;SDS011;5563;52.296;6.806;2023-04-06T14:12:29;12.52;;;9.85;;
11018;SDS011;5563;52.296;6.806;2023-04-06T14:15:04;10.25;;;8.85;;
11018;SDS011;5563;52.296;6.806;2023-04-06T14:17:31;12.30;;;9.05;;
11018;SDS011;5563;52.296;6.806;2023-04-06T14:20:12;12.00;;;9.00;;
11018;SDS011;5563;52.296;6.806;2023-04-06T14:22:47;13.07;;;8.52;;
11018;SDS011;5563;52.296;6.806;2023-04-06T14:25:15;13.70;;;10.70;;
11018;SDS011;5563;52.296;6.806;2023-04-06T14:27:49;12.95;;;9.35;;
11018;SDS011;5563;52.296;6.806;2023-04-06T14:30:23;11.10;;;8.98;;
11018;SDS011;5563;52.296;6.806;2023-04-06T14:32:56;13.30;;;10.82;;
11018;SDS011;5563;52.296;6.806;2023-04-06T14:35:24;17.70;;;12.05;;
11018;SDS011;5563;52.296;6.806;2023-04-06T14:37:58;16.95;;;13.43;;
11018;SDS011;5563;52.296;6.806;2023-04-06T14:40:25;15.38;;;12.65;;
11018;SDS011;5563;52.296;6.806;2023-04-06T14:42:58;15.45;;;11.65;;
11018;SDS011;5563;52.296;6.806;2023-04-06T14:45:24;12.15;;;9.63;;
11018;SDS011;5563;52.296;6.806;2023-04-06T14:47:51;14.35;;;10.57;;
11018;SDS011;5563;52.296;6.806;2023-04-06T14:50:25;13.50;;;9.82;;
11018;SDS011;5563;52.296;6.806;2023-04-06T14:52:58;13.02;;;9.68;;
11018;SDS011;5563;52.296;6.806;2023-04-06T14:55:26;14.18;;;9.98;;
11018;SDS011;5563;52.296;6.806;2023-04-06T14:57:59;12.43;;;10.70;;
11018;SDS011;5563;52.296;6.806;2023-04-06T15:00:26;15.32;;;10.98;;
11018;SDS011;5563;52.296;6.806;2023-04-06T15:02:53;17.77;;;11.10;;
11018;SDS011;5563;52.296;6.806;2023-04-06T15:05:26;14.32;;;11.35;;
11018;SDS011;5563;52.296;6.806;2023-04-06T15:07:53;12.55;;;10.15;;
11018;SDS011;5563;52.296;6.806;2023-04-06T15:10:26;10.60;;;9.32;;
11018;SDS011;5563;52.296;6.806;2023-04-06T15:12:53;13.15;;;8.90;;
11018;SDS011;5563;52.296;6.806;2023-04-06T15:15:26;10.82;;;9.40;;
11018;SDS011;5563;52.296;6.806;2023-04-06T15:18:05;15.55;;;9.63;;
11018;SDS011;5563;52.296;6.806;2023-04-06T15:20:46;11.48;;;9.32;;
11018;SDS011;5563;52.296;6.806;2023-04-06T15:23:14;11.07;;;9.52;;
11018;SDS011;5563;52.296;6.806;2023-04-06T15:25:47;10.27;;;9.18;;
11018;SDS011;5563;52.296;6.806;2023-04-06T15:28:14;9.57;;;8.13;;
11018;SDS011;5563;52.296;6.806;2023-04-06T15:30:47;10.75;;;8.63;;
11018;SDS011;5563;52.296;6.806;2023-04-06T15:33:20;11.65;;;9.30;;
11018;SDS011;5563;52.296;6.806;2023-04-06T15:35:48;10.50;;;8.32;;
11018;SDS011;5563;52.296;6.806;2023-04-06T15:38:21;10.50;;;8.50;;